Time;durP1;ratioP1;P1;durP2;ratioP2;P2;SDS_P1;SDS_P2;PMS_P1;PMS_P2;Temp;Humidity;BMP_temperature;BMP_pressure;BME280_temperature;BME280_humidity;BME280_pressure;Samples;Min_cycle;Max_cycle;Signal;HPM_P1;HPM_P2
2022/08/10 00:00:57;;;;;;;7.50;4.65;;;;;;;;;;5125117;27;20058;-67
2022/08/10 00:03:24;;;;;;;6.68;5.20;;;;;;;;;;5137933;27;20069;-67
2022/08/10 00:05:53;;;;;;;10.43;6.18;;;;;;;;;;5128142;27;20034;-67
2022/08/10 00:08:20;;;;;;;6.63;4.22;;;;;;;;;;5139554;27;20047;-67
2022/08/10 00:10:46;;;;;;;9.38;5.13;;;;;;;;;;5133458;27;20064;-68
2022/08/10 00:13:12;;;;;;;6.97;4.60;;;;;;;;;;5140740;27;20118;-68
2022/08/10 00:15:38;;;;;;;5.63;4.63;;;;;;;;;;5127156;27;20035;-67
2022/08/10 00:18:04;;;;;;;6.30;4.93;;;;;;;;;;5124970;27;20046;-67
2022/08/10 00:20:31;;;;;;;6.32;4.90;;;;;;;;;;5129611;27;20046;-67
2022/08/10 00:22:58;;;;;;;6.47;4.60;;;;;;;;;;5136963;27;20046;-67
2022/08/10 00:25:24;;;;;;;7.18;5.53;;;;;;;;;;5120040;27;20043;-68
2022/08/10 00:27:50;;;;;;;6.65;5.40;;;;;;;;;;5151185;27;20042;-68
2022/08/10 00:30:16;;;;;;;5.43;4.18;;;;;;;;;;5122817;27;20077;-68
2022/08/10 00:32:42;;;;;;;8.32;5.25;;;;;;;;;;5154213;27;20090;-68
2022/08/10 00:35:09;;;;;;;9.98;5.63;;;;;;;;;;5129089;27;20065;-68
2022/08/10 00:37:35;;;;;;;6.72;5.82;;;;;;;;;;5122230;27;20484;-68
2022/08/10 00:40:01;;;;;;;6.97;5.18;;;;;;;;;;5146299;27;20126;-68
2022/08/10 00:42:28;;;;;;;6.57;4.70;;;;;;;;;;5136824;27;20396;-67
2022/08/10 00:44:54;;;;;;;6.72;4.93;;;;;;;;;;5124744;27;20068;-67
2022/08/10 00:47:20;;;;;;;5.50;4.70;;;;;;;;;;5131303;27;20035;-67
2022/08/10 00:49:46;;;;;;;6.28;4.53;;;;;;;;;;5142329;27;20039;-67
2022/08/10 00:52:13;;;;;;;7.63;5.40;;;;;;;;;;5127309;27;20047;-67
2022/08/10 00:54:41;;;;;;;6.90;5.00;;;;;;;;;;5141389;27;20083;-67
2022/08/10 00:57:07;;;;;;;9.10;5.65;;;;;;;;;;5135312;27;20035;-67
2022/08/10 00:59:34;;;;;;;8.90;5.50;;;;;;;;;;5142208;27;20039;-67
2022/08/10 01:02:00;;;;;;;6.43;5.28;;;;;;;;;;5117869;27;20399;-67
2022/08/10 01:04:27;;;;;;;7.15;5.32;;;;;;;;;;5126856;27;20046;-67
2022/08/10 01:07:12;;;;;;;6.93;5.68;;;;;;;;;;5150131;27;20035;-67
2022/08/10 01:09:39;;;;;;;7.60;5.22;;;;;;;;;;5119188;27;20373;-67
2022/08/10 01:12:12;;;;;;;6.72;5.30;;;;;;;;;;5148847;27;20043;-67
2022/08/10 01:14:47;;;;;;;8.75;5.45;;;;;;;;;;5136775;27;20043;-67
2022/08/10 01:17:25;;;;;;;8.23;5.20;;;;;;;;;;5144255;27;20171;-67
2022/08/10 01:20:08;;;;;;;7.10;4.78;;;;;;;;;;5136112;27;20441;-68
2022/08/10 01:22:34;;;;;;;8.05;5.72;;;;;;;;;;5127118;27;20072;-68
2022/08/10 01:25:12;;;;;;;7.15;4.90;;;;;;;;;;5116958;27;20503;-67
2022/08/10 01:27:55;;;;;;;6.22;4.82;;;;;;;;;;5118168;27;20043;-67
2022/08/10 01:30:22;;;;;;;8.18;4.88;;;;;;;;;;5121197;27;20502;-67
2022/08/10 01:33:01;;;;;;;8.30;5.25;;;;;;;;;;5142613;27;20068;-68
2022/08/10 01:35:40;;;;;;;8.02;4.68;;;;;;;;;;5143716;27;20071;-67
2022/08/10 01:38:09;;;;;;;5.78;4.65;;;;;;;;;;5142919;27;20215;-68
2022/08/10 01:40:38;;;;;;;7.35;4.75;;;;;;;;;;5119368;27;20050;-68
2022/08/10 01:43:05;;;;;;;7.90;5.07;;;;;;;;;;5125968;27;20059;-68
2022/08/10 01:45:32;;;;;;;8.10;4.78;;;;;;;;;;5139934;27;20348;-68
2022/08/10 01:50:47;;;;;;;7.68;5.13;;;;;;;;;;5136719;27;20045;-68
2022/08/10 01:53:23;;;;;;;8.23;4.80;;;;;;;;;;5117995;27;20047;-68
2022/08/10 01:55:51;;;;;;;7.28;5.00;;;;;;;;;;5123640;27;20038;-68
2022/08/10 01:58:18;;;;;;;9.40;5.65;;;;;;;;;;5122602;27;20430;-68
2022/08/10 02:00:45;;;;;;;10.25;5.35;;;;;;;;;;5130574;27;20035;-68
2022/08/10 02:03:12;;;;;;;8.02;6.35;;;;;;;;;;5148176;27;20412;-68
2022/08/10 02:05:39;;;;;;;8.13;5.97;;;;;;;;;;5115895;27;20031;-67
2022/08/10 02:08:06;;;;;;;5.95;4.97;;;;;;;;;;5142059;27;20042;-67
2022/08/10 02:10:33;;;;;;;7.40;5.60;;;;;;;;;;5128479;27;20151;-67
2022/08/10 02:12:59;;;;;;;8.10;4.78;;;;;;;;;;5148106;27;20031;-67
2022/08/10 02:15:28;;;;;;;9.93;6.63;;;;;;;;;;5152377;27;20552;-68
2022/08/10 02:17:59;;;;;;;8.52;6.03;;;;;;;;;;5122758;27;20043;-68
2022/08/10 02:20:28;;;;;;;9.70;6.10;;;;;;;;;;5125138;27;20069;-67
2022/08/10 02:23:01;;;;;;;9.27;5.95;;;;;;;;;;5136374;27;20509;-68
2022/08/10 02:25:28;;;;;;;9.85;5.20;;;;;;;;;;5133598;27;20555;-68
2022/08/10 02:27:54;;;;;;;8.60;6.18;;;;;;;;;;5133943;27;20451;-68
2022/08/10 02:30:21;;;;;;;8.68;5.18;;;;;;;;;;5121780;27;20038;-68
2022/08/10 02:32:48;;;;;;;5.95;4.28;;;;;;;;;;5119754;27;20137;-69
2022/08/10 02:35:15;;;;;;;10.18;6.40;;;;;;;;;;5139433;27;20086;-68
2022/08/10 02:37:43;;;;;;;8.57;6.18;;;;;;;;;;5145694;27;20080;-68
2022/08/10 02:40:10;;;;;;;7.65;5.20;;;;;;;;;;5130722;27;20047;-69
2022/08/10 02:42:41;;;;;;;8.90;6.00;;;;;;;;;;5138140;27;20320;-68
2022/08/10 02:45:33;;;;;;;7.60;5.72;;;;;;;;;;5120456;27;20042;-68
2022/08/10 02:48:01;;;;;;;9.60;6.57;;;;;;;;;;5092843;27;20065;-69
2022/08/10 02:50:34;;;;;;;8.38;6.40;;;;;;;;;;5128576;27;20482;-68
2022/08/10 02:53:05;;;;;;;11.48;6.88;;;;;;;;;;5139945;27;20027;-68
2022/08/10 02:55:40;;;;;;;8.38;6.40;;;;;;;;;;5138251;27;20119;-68
2022/08/10 02:58:08;;;;;;;10.23;6.82;;;;;;;;;;5126293;27;20434;-67
2022/08/10 03:00:37;;;;;;;6.72;5.35;;;;;;;;;;5137444;27;20064;-67
2022/08/10 03:03:04;;;;;;;9.00;6.43;;;;;;;;;;5142541;27;20373;-69
2022/08/10 03:05:30;;;;;;;9.77;6.88;;;;;;;;;;5131311;27;20045;-69
2022/08/10 03:08:01;;;;;;;14.55;7.45;;;;;;;;;;5149041;27;20073;-69
2022/08/10 03:10:30;;;;;;;10.27;6.95;;;;;;;;;;5105235;27;20043;-69
2022/08/10 03:12:58;;;;;;;10.25;6.55;;;;;;;;;;5145565;27;20038;-69
2022/08/10 03:15:25;;;;;;;11.13;7.30;;;;;;;;;;5134455;27;20099;-69
2022/08/10 03:17:52;;;;;;;11.90;6.32;;;;;;;;;;5148281;27;20065;-69
2022/08/10 03:20:20;;;;;;;10.48;7.03;;;;;;;;;;5121505;27;20035;-69
2022/08/10 03:22:49;;;;;;;10.23;7.05;;;;;;;;;;5118091;27;20385;-69
2022/08/10 03:25:16;;;;;;;13.65;7.97;;;;;;;;;;5116165;27;20070;-69
2022/08/10 03:27:43;;;;;;;11.38;7.05;;;;;;;;;;5141453;27;20046;-69
2022/08/10 03:30:09;;;;;;;12.48;7.88;;;;;;;;;;5125754;27;20041;-69
2022/08/10 03:32:36;;;;;;;10.82;7.10;;;;;;;;;;5132907;27;20046;-69
2022/08/10 03:35:02;;;;;;;10.43;7.55;;;;;;;;;;5133415;27;20070;-69
2022/08/10 03:37:28;;;;;;;9.40;7.68;;;;;;;;;;5123018;27;20043;-69
2022/08/10 03:39:55;;;;;;;9.43;7.95;;;;;;;;;;5126997;27;20384;-69
2022/08/10 03:42:22;;;;;;;11.60;8.57;;;;;;;;;;5126687;27;20058;-69
2022/08/10 03:44:50;;;;;;;11.32;7.95;;;;;;;;;;5149724;27;20092;-69
2022/08/10 03:47:17;;;;;;;16.63;8.98;;;;;;;;;;5136630;27;20113;-69
2022/08/10 03:49:44;;;;;;;11.23;8.30;;;;;;;;;;5092210;27;20082;-69
2022/08/10 03:52:11;;;;;;;12.65;8.05;;;;;;;;;;5136722;27;20048;-69
2022/08/10 03:54:37;;;;;;;10.95;8.30;;;;;;;;;;5146523;27;20091;-69
2022/08/10 03:57:03;;;;;;;13.20;8.32;;;;;;;;;;5131179;27;20031;-68
2022/08/10 03:59:30;;;;;;;12.02;8.25;;;;;;;;;;5128142;27;20039;-69
2022/08/10 04:01:56;;;;;;;11.65;8.20;;;;;;;;;;5140653;27;20043;-69
2022/08/10 04:04:22;;;;;;;10.65;8.27;;;;;;;;;;5137801;27;20042;-68
2022/08/10 04:06:49;;;;;;;11.23;8.13;;;;;;;;;;5124374;28;20061;-68
2022/08/10 04:09:15;;;;;;;11.55;8.30;;;;;;;;;;5117955;27;20037;-69
2022/08/10 04:11:42;;;;;;;10.52;7.70;;;;;;;;;;5126946;27;20039;-68
2022/08/10 04:14:08;;;;;;;8.57;6.55;;;;;;;;;;5144539;27;20084;-69
2022/08/10 04:16:35;;;;;;;12.45;7.40;;;;;;;;;;5125554;27;20066;-69
2022/08/10 04:19:01;;;;;;;12.80;7.72;;;;;;;;;;5119188;28;20525;-68
2022/08/10 04:21:30;;;;;;;9.98;7.78;;;;;;;;;;5118788;27;20098;-69
2022/08/10 04:23:57;;;;;;;13.32;8.02;;;;;;;;;;5128904;27;20715;-69
2022/08/10 04:26:24;;;;;;;11.77;8.30;;;;;;;;;;5149191;27;20035;-68
2022/08/10 04:28:50;;;;;;;9.77;8.40;;;;;;;;;;5119067;27;20140;-68
2022/08/10 04:31:17;;;;;;;14.07;7.53;;;;;;;;;;5139331;27;20098;-68
2022/08/10 04:33:46;;;;;;;11.55;7.65;;;;;;;;;;5123805;27;20045;-69
2022/08/10 04:36:13;;;;;;;12.98;7.57;;;;;;;;;;5126644;27;20049;-69
2022/08/10 04:38:41;;;;;;;10.68;8.32;;;;;;;;;;5146964;27;20299;-69
2022/08/10 04:41:07;;;;;;;11.68;8.00;;;;;;;;;;5114454;28;20130;-69
2022/08/10 04:43:33;;;;;;;10.52;8.18;;;;;;;;;;5134389;27;20122;-68
2022/08/10 04:46:00;;;;;;;13.55;8.35;;;;;;;;;;5141866;27;20092;-69
2022/08/10 04:48:26;;;;;;;9.98;7.90;;;;;;;;;;5100063;27;20031;-68
2022/08/10 04:50:52;;;;;;;10.80;8.35;;;;;;;;;;5138620;27;20529;-69
2022/08/10 04:53:18;;;;;;;13.48;7.40;;;;;;;;;;5138740;27;20138;-69
2022/08/10 04:55:44;;;;;;;14.63;8.48;;;;;;;;;;5115447;27;20496;-68
2022/08/10 04:58:10;;;;;;;13.57;8.32;;;;;;;;;;5134769;27;20095;-69
2022/08/10 05:00:36;;;;;;;10.85;7.68;;;;;;;;;;5139177;27;20049;-68
2022/08/10 05:03:03;;;;;;;14.05;9.35;;;;;;;;;;5148070;27;20200;-68
2022/08/10 05:05:29;;;;;;;10.10;7.38;;;;;;;;;;5117624;27;20039;-69
2022/08/10 05:07:55;;;;;;;10.18;7.28;;;;;;;;;;5131230;27;20488;-69
2022/08/10 05:10:21;;;;;;;12.85;7.85;;;;;;;;;;5140119;27;20041;-69
2022/08/10 05:12:47;;;;;;;10.73;7.70;;;;;;;;;;5119958;27;20408;-69
2022/08/10 05:15:16;;;;;;;10.10;7.63;;;;;;;;;;5127708;27;20091;-69
2022/08/10 05:17:43;;;;;;;11.30;8.30;;;;;;;;;;5118957;27;20633;-69
2022/08/10 05:20:11;;;;;;;10.70;6.93;;;;;;;;;;5128235;27;20231;-69
2022/08/10 05:22:38;;;;;;;11.20;7.95;;;;;;;;;;5108515;27;20053;-69
2022/08/10 05:25:05;;;;;;;12.82;7.75;;;;;;;;;;5124559;27;20034;-69
2022/08/10 05:27:32;;;;;;;12.07;7.38;;;;;;;;;;5138140;27;20078;-69
2022/08/10 05:29:59;;;;;;;9.77;6.93;;;;;;;;;;5129566;27;20492;-69
2022/08/10 05:32:25;;;;;;;14.10;8.38;;;;;;;;;;5134789;27;20054;-69
2022/08/10 05:34:51;;;;;;;9.65;7.43;;;;;;;;;;5147918;27;20475;-69
2022/08/10 05:37:19;;;;;;;10.95;7.38;;;;;;;;;;5117831;27;20038;-69
2022/08/10 05:39:45;;;;;;;10.85;6.55;;;;;;;;;;5123635;27;20465;-69
2022/08/10 05:42:12;;;;;;;15.00;7.80;;;;;;;;;;5149065;27;20046;-68
2022/08/10 05:44:39;;;;;;;10.73;7.15;;;;;;;;;;5151348;27;20486;-69
2022/08/10 05:47:05;;;;;;;11.30;7.45;;;;;;;;;;5136353;27;20460;-69
2022/08/10 05:49:31;;;;;;;12.10;7.57;;;;;;;;;;5117379;27;20040;-68
2022/08/10 05:51:57;;;;;;;11.98;7.32;;;;;;;;;;5121723;27;20039;-68
2022/08/10 05:54:25;;;;;;;14.60;8.32;;;;;;;;;;5130654;27;20039;-69
2022/08/10 05:56:52;;;;;;;8.93;6.65;;;;;;;;;;5133846;27;20186;-69
2022/08/10 05:59:18;;;;;;;8.52;6.05;;;;;;;;;;5141470;27;20039;-68
2022/08/10 06:01:46;;;;;;;10.35;7.18;;;;;;;;;;5125994;27;20058;-69
2022/08/10 06:04:15;;;;;;;11.48;8.35;;;;;;;;;;5116105;27;20042;-68
2022/08/10 06:06:42;;;;;;;9.52;7.18;;;;;;;;;;5128808;27;20039;-68
2022/08/10 06:09:09;;;;;;;12.38;7.30;;;;;;;;;;5126951;27;20489;-69
2022/08/10 06:11:38;;;;;;;8.77;6.97;;;;;;;;;;5142930;27;20053;-69
2022/08/10 06:16:51;;;;;;;15.38;7.35;;;;;;;;;;5116791;27;20043;-69
2022/08/10 06:19:17;;;;;;;13.32;7.95;;;;;;;;;;5125535;27;20051;-69
2022/08/10 06:21:44;;;;;;;9.93;6.65;;;;;;;;;;5123438;27;20050;-69
2022/08/10 06:24:10;;;;;;;9.90;6.50;;;;;;;;;;5135791;27;20035;-69
2022/08/10 06:26:37;;;;;;;11.32;7.40;;;;;;;;;;5131897;27;20041;-69
2022/08/10 06:29:06;;;;;;;9.15;6.38;;;;;;;;;;5123233;27;20121;-69
2022/08/10 06:31:42;;;;;;;9.20;6.03;;;;;;;;;;5143619;27;20117;-70
2022/08/10 06:34:10;;;;;;;8.80;5.72;;;;;;;;;;5118825;27;20118;-69
2022/08/10 06:36:37;;;;;;;8.40;5.43;;;;;;;;;;5117484;27;20045;-68
2022/08/10 06:39:03;;;;;;;10.57;6.35;;;;;;;;;;5121098;27;20042;-69
2022/08/10 06:41:33;;;;;;;10.00;6.05;;;;;;;;;;5122688;27;20042;-68
2022/08/10 06:44:06;;;;;;;8.80;6.05;;;;;;;;;;5123825;27;20047;-68
2022/08/10 06:46:35;;;;;;;8.02;5.18;;;;;;;;;;5121316;27;20043;-68
2022/08/10 06:49:02;;;;;;;10.68;5.35;;;;;;;;;;5126555;27;20554;-68
2022/08/10 06:51:36;;;;;;;7.35;5.18;;;;;;;;;;5130467;27;20042;-68
2022/08/10 06:54:12;;;;;;;9.23;5.13;;;;;;;;;;5123737;27;20039;-68
2022/08/10 06:56:39;;;;;;;8.73;4.90;;;;;;;;;;5117143;27;20042;-69
2022/08/10 06:59:26;;;;;;;7.70;4.68;;;;;;;;;;5125725;27;20061;-68
2022/08/10 07:02:18;;;;;;;10.75;4.80;;;;;;;;;;5115777;27;20413;-68
2022/08/10 07:04:47;;;;;;;13.00;5.47;;;;;;;;;;5138741;27;20051;-68
2022/08/10 07:07:16;;;;;;;6.32;4.75;;;;;;;;;;5146000;27;20117;-68
2022/08/10 07:09:43;;;;;;;6.95;4.80;;;;;;;;;;5140360;27;20037;-68
2022/08/10 07:12:10;;;;;;;8.93;4.70;;;;;;;;;;5115279;27;20135;-69
2022/08/10 07:14:38;;;;;;;7.40;4.00;;;;;;;;;;5138642;27;20080;-69
2022/08/10 07:17:05;;;;;;;6.90;3.78;;;;;;;;;;5126964;27;20031;-68
2022/08/10 07:19:31;;;;;;;6.25;4.13;;;;;;;;;;5119443;27;20041;-69
2022/08/10 07:21:59;;;;;;;9.88;4.20;;;;;;;;;;5131724;27;20092;-69
2022/08/10 07:24:25;;;;;;;7.88;5.75;;;;;;;;;;5139269;27;20050;-69
2022/08/10 07:26:53;;;;;;;7.60;4.38;;;;;;;;;;5117069;27;20034;-69
2022/08/10 07:29:20;;;;;;;8.40;3.95;;;;;;;;;;5124241;27;20042;-69
2022/08/10 07:31:48;;;;;;;6.38;4.10;;;;;;;;;;5148615;27;20034;-69
2022/08/10 07:34:15;;;;;;;7.53;4.78;;;;;;;;;;5129727;27;20078;-68
2022/08/10 07:36:42;;;;;;;5.15;4.20;;;;;;;;;;5141720;27;20142;-69
2022/08/10 07:39:09;;;;;;;6.93;4.47;;;;;;;;;;5134098;27;20086;-69
2022/08/10 07:41:39;;;;;;;6.05;4.40;;;;;;;;;;5141447;27;20042;-69
2022/08/10 07:44:08;;;;;;;7.07;4.30;;;;;;;;;;5142512;27;20080;-68
2022/08/10 07:46:37;;;;;;;5.28;3.90;;;;;;;;;;5120854;27;20047;-69
2022/08/10 07:49:06;;;;;;;7.18;4.70;;;;;;;;;;5123211;27;20525;-69
2022/08/10 07:51:32;;;;;;;6.80;4.53;;;;;;;;;;5117690;27;20404;-68
2022/08/10 07:54:00;;;;;;;8.45;4.20;;;;;;;;;;5123137;27;20309;-69
2022/08/10 07:56:28;;;;;;;9.98;4.35;;;;;;;;;;5147938;27;20492;-69
2022/08/10 07:58:56;;;;;;;11.48;4.88;;;;;;;;;;5138348;27;20035;-69
2022/08/10 08:01:27;;;;;;;8.45;4.68;;;;;;;;;;5126474;28;20054;-69
2022/08/10 08:03:55;;;;;;;8.38;3.80;;;;;;;;;;5121432;27;20281;-69
2022/08/10 08:06:22;;;;;;;7.38;3.78;;;;;;;;;;5132697;27;20042;-69
2022/08/10 08:08:48;;;;;;;5.75;3.85;;;;;;;;;;5123188;28;20095;-69
2022/08/10 08:11:15;;;;;;;7.10;3.75;;;;;;;;;;5135485;27;20070;-69
2022/08/10 08:13:41;;;;;;;6.53;3.50;;;;;;;;;;5142191;27;20042;-69
2022/08/10 08:16:09;;;;;;;8.57;3.85;;;;;;;;;;5138987;27;20039;-69
2022/08/10 08:18:37;;;;;;;6.85;3.80;;;;;;;;;;5120744;28;20481;-69
2022/08/10 08:21:03;;;;;;;6.78;3.80;;;;;;;;;;5115617;27;20038;-69
2022/08/10 08:23:30;;;;;;;6.78;3.67;;;;;;;;;;5138008;27;20070;-69
2022/08/10 08:25:57;;;;;;;6.70;3.60;;;;;;;;;;5144841;27;20492;-69
2022/08/10 08:28:24;;;;;;;9.32;3.63;;;;;;;;;;5109617;27;20397;-69
2022/08/10 08:30:50;;;;;;;6.07;3.47;;;;;;;;;;5118434;28;20046;-69
2022/08/10 08:33:18;;;;;;;5.75;4.00;;;;;;;;;;5138218;27;20411;-69
2022/08/10 08:35:44;;;;;;;6.47;4.63;;;;;;;;;;5132325;27;20059;-69
2022/08/10 08:38:12;;;;;;;8.10;4.72;;;;;;;;;;5151670;27;20417;-70
2022/08/10 08:40:40;;;;;;;7.28;4.47;;;;;;;;;;5131323;27;20598;-69
2022/08/10 08:43:26;;;;;;;7.80;4.57;;;;;;;;;;5125092;27;20051;-69
2022/08/10 08:46:11;;;;;;;7.00;3.25;;;;;;;;;;5137569;27;20520;-69
2022/08/10 08:48:42;;;;;;;6.07;3.72;;;;;;;;;;5131765;27;20039;-70
2022/08/10 08:51:27;;;;;;;4.95;3.45;;;;;;;;;;5134424;27;20046;-69
2022/08/10 08:54:02;;;;;;;12.40;3.85;;;;;;;;;;5114535;27;20027;-70
2022/08/10 08:56:34;;;;;;;8.48;3.63;;;;;;;;;;5119296;27;20070;-70
2022/08/10 08:59:05;;;;;;;6.10;3.20;;;;;;;;;;5145851;27;20037;-69
2022/08/10 09:01:40;;;;;;;3.97;2.80;;;;;;;;;;5137121;27;20485;-69
2022/08/10 09:04:26;;;;;;;6.20;2.83;;;;;;;;;;5131471;27;21315;-70
2022/08/10 09:07:06;;;;;;;5.28;2.95;;;;;;;;;;5149532;27;20045;-70
2022/08/10 09:09:35;;;;;;;7.20;3.63;;;;;;;;;;5118579;27;20043;-70
2022/08/10 09:12:12;;;;;;;7.00;3.40;;;;;;;;;;5124046;27;20077;-70
2022/08/10 09:14:39;;;;;;;6.80;3.38;;;;;;;;;;5129399;27;20039;-70
2022/08/10 09:17:23;;;;;;;4.82;3.80;;;;;;;;;;5137768;27;20051;-70
2022/08/10 09:19:54;;;;;;;7.47;4.22;;;;;;;;;;5124107;27;20038;-70
2022/08/10 09:22:24;;;;;;;6.47;3.63;;;;;;;;;;5124630;27;20039;-70
2022/08/10 09:24:57;;;;;;;6.78;3.78;;;;;;;;;;5137021;27;20452;-70
2022/08/10 09:27:40;;;;;;;4.65;3.42;;;;;;;;;;5114747;27;20461;-70
2022/08/10 09:30:09;;;;;;;9.88;3.72;;;;;;;;;;5124635;27;20034;-70
2022/08/10 09:32:46;;;;;;;5.57;3.47;;;;;;;;;;5134319;27;20091;-70
2022/08/10 09:35:31;;;;;;;4.85;3.40;;;;;;;;;;5144972;27;20286;-70
2022/08/10 09:38:06;;;;;;;6.43;3.55;;;;;;;;;;5120399;27;20515;-70
2022/08/10 09:40:44;;;;;;;6.38;3.33;;;;;;;;;;5125286;27;20047;-70
2022/08/10 09:43:21;;;;;;;6.82;3.75;;;;;;;;;;5130426;27;20125;-70
2022/08/10 09:46:07;;;;;;;4.43;3.05;;;;;;;;;;5130960;27;20030;-70
2022/08/10 09:48:42;;;;;;;7.82;3.35;;;;;;;;;;5131122;27;20031;-70
2022/08/10 09:51:47;;;;;;;6.03;3.15;;;;;;;;;;5141147;27;20031;-70
2022/08/10 09:54:20;;;;;;;7.97;3.03;;;;;;;;;;5026126;28;20079;-70
2022/08/10 09:56:46;;;;;;;5.55;3.03;;;;;;;;;;5031622;28;20049;-70
2022/08/10 09:59:15;;;;;;;5.95;2.90;;;;;;;;;;5091054;27;20042;-70
2022/08/10 10:01:47;;;;;;;10.93;3.83;;;;;;;;;;5152579;27;20164;-70
2022/08/10 10:04:29;;;;;;;4.78;3.33;;;;;;;;;;5136508;27;20039;-70
2022/08/10 10:06:58;;;;;;;5.97;3.47;;;;;;;;;;5115813;27;20063;-70
2022/08/10 10:09:42;;;;;;;5.78;2.60;;;;;;;;;;5122267;27;20038;-70
2022/08/10 10:12:16;;;;;;;4.63;2.80;;;;;;;;;;5129819;27;20042;-70
2022/08/10 10:15:30;;;;;;;7.15;2.85;;;;;;;;;;5129320;27;20163;-70
2022/08/10 10:17:50;;;;;;;8.85;3.28;;;;;;;;;;5115991;27;20092;-70
2022/08/10 10:20:19;;;;;;;4.68;3.10;;;;;;;;;;5132521;27;20046;-71
2022/08/10 10:22:52;;;;;;;4.25;2.63;;;;;;;;;;5126170;27;20038;-70
2022/08/10 10:25:31;;;;;;;4.75;2.70;;;;;;;;;;5124598;27;20039;-70
2022/08/10 10:28:12;;;;;;;4.57;2.30;;;;;;;;;;5149245;27;20035;-70
2022/08/10 10:30:51;;;;;;;7.50;2.50;;;;;;;;;;5126646;27;20041;-71
2022/08/10 10:33:35;;;;;;;3.45;2.30;;;;;;;;;;5121450;27;20436;-70
2022/08/10 10:36:03;;;;;;;5.22;1.95;;;;;;;;;;5123444;27;20463;-70
2022/08/10 10:38:34;;;;;;;4.95;2.22;;;;;;;;;;5140991;27;20085;-70
2022/08/10 10:41:06;;;;;;;5.20;2.38;;;;;;;;;;5131038;27;20030;-71
2022/08/10 10:43:36;;;;;;;4.47;2.33;;;;;;;;;;5130311;27;20047;-70
2022/08/10 10:46:16;;;;;;;4.80;3.17;;;;;;;;;;5123563;27;20046;-71
2022/08/10 10:48:49;;;;;;;4.00;2.33;;;;;;;;;;5126372;27;20117;-70
2022/08/10 10:51:26;;;;;;;3.88;2.30;;;;;;;;;;5138437;27;20045;-71
2022/08/10 10:54:05;;;;;;;2.38;1.73;;;;;;;;;;5145829;27;20080;-70
2022/08/10 10:56:50;;;;;;;3.42;2.55;;;;;;;;;;5106605;27;20039;-70
2022/08/10 10:59:34;;;;;;;3.90;2.55;;;;;;;;;;5142768;27;20042;-70
2022/08/10 11:02:08;;;;;;;4.88;2.10;;;;;;;;;;5127386;27;20046;-70
2022/08/10 11:04:40;;;;;;;3.20;2.20;;;;;;;;;;5125569;27;20053;-71
2022/08/10 11:07:09;;;;;;;3.15;1.90;;;;;;;;;;5128044;27;20042;-70
2022/08/10 11:09:54;;;;;;;6.78;2.40;;;;;;;;;;5132184;27;20450;-70
2022/08/10 11:12:28;;;;;;;5.45;2.40;;;;;;;;;;5120290;27;20043;-71
2022/08/10 11:14:54;;;;;;;2.97;2.30;;;;;;;;;;5125494;27;20035;-71
2022/08/10 11:17:44;;;;;;;4.22;2.20;;;;;;;;;;5113537;27;20042;-71
2022/08/10 11:20:31;;;;;;;3.13;1.83;;;;;;;;;;5129791;27;20047;-71
2022/08/10 11:23:07;;;;;;;3.95;2.22;;;;;;;;;;5140674;27;20062;-71
2022/08/10 11:25:37;;;;;;;2.65;1.67;;;;;;;;;;5130097;27;20507;-71
2022/08/10 11:28:19;;;;;;;3.67;2.15;;;;;;;;;;5124708;27;20091;-71
2022/08/10 11:30:54;;;;;;;6.25;2.00;;;;;;;;;;5111094;27;20528;-71
2022/08/10 11:33:23;;;;;;;3.55;1.60;;;;;;;;;;5126005;27;20250;-71
2022/08/10 11:36:02;;;;;;;3.13;2.08;;;;;;;;;;5127246;27;20441;-71
2022/08/10 11:38:37;;;;;;;3.05;2.13;;;;;;;;;;5123278;27;20054;-71
2022/08/10 11:41:06;;;;;;;2.80;2.05;;;;;;;;;;5143438;27;20034;-72
2022/08/10 11:43:37;;;;;;;4.28;1.95;;;;;;;;;;5143993;27;20126;-71
2022/08/10 11:46:21;;;;;;;1.92;1.45;;;;;;;;;;5130770;27;20350;-71
2022/08/10 11:49:01;;;;;;;5.03;1.90;;;;;;;;;;5121833;27;20038;-71
2022/08/10 11:51:44;;;;;;;2.83;2.00;;;;;;;;;;5128207;27;20584;-72
2022/08/10 11:54:14;;;;;;;3.03;1.88;;;;;;;;;;5129853;27;20056;-72
2022/08/10 11:56:49;;;;;;;2.95;2.08;;;21.50;90.40;;;;;;5128680;27;20039;-72
2022/08/10 12:02:05;;;;;;;4.05;2.25;;;24.90;96.10;;;;;;5131871;27;20082;-71
2022/08/10 12:04:32;;;;;;;3.85;2.17;;;25.00;95.90;;;;;;5119092;27;20377;-71
2022/08/10 12:07:03;;;;;;;2.33;1.85;;;25.00;95.80;;;;;;5110685;27;20039;-71
2022/08/10 12:09:30;;;;;;;4.05;2.00;;;25.00;95.60;;;;;;5127200;27;20375;-71
2022/08/10 12:11:59;;;;;;;5.47;2.00;;;25.20;95.90;;;;;;5139406;27;20043;-73
2022/08/10 12:14:36;;;;;;;7.35;2.10;;;;;;;;;;5146833;27;20039;-73
2022/08/10 12:17:09;;;;;;;3.15;1.88;;;;;;;;;;5118863;27;20074;-70
2022/08/10 12:19:43;;;;;;;2.50;1.90;;;;;;;;;;5121570;27;20530;-71
2022/08/10 12:22:16;;;;;;;3.53;2.10;;;;;;;;;;5118613;27;20557;-71
2022/08/10 12:24:49;;;;;;;6.30;1.70;;;;;;;;;;5151133;27;20073;-71
2022/08/10 12:27:21;;;;;;;6.90;2.13;;;;;;;;;;5128070;27;20050;-71
2022/08/10 12:29:53;;;;;;;4.75;2.60;;;;;;;;;;5126461;27;20063;-71
2022/08/10 12:32:41;;;;;;;4.75;2.40;;;;;;;;;;5143728;27;20070;-71
2022/08/10 12:35:22;;;;;;;5.30;2.78;;;;;;;;;;5116819;27;20039;-72
2022/08/10 12:37:55;;;;;;;3.23;2.17;;;;;;;;;;5133018;27;20043;-71
2022/08/10 12:40:21;;;;;;;;;;;;;;;;;;5132999;27;20042;-71
2022/08/10 12:43:05;;;;;;;3.90;2.40;;;25.20;95.30;;;;;;5128721;27;20007;-72
2022/08/10 12:45:36;;;;;;;4.80;2.22;;;26.00;96.00;;;;;;5122599;27;20045;-71
2022/08/10 12:48:15;;;;;;;5.28;2.42;;;26.00;96.30;;;;;;5128503;27;20081;-72
2022/08/10 12:50:45;;;;;;;5.47;3.28;;;26.00;96.20;;;;;;5127856;27;20056;-72
2022/08/10 12:53:27;;;;;;;4.32;2.42;;;26.00;95.70;;;;;;5099396;27;20043;-71
2022/08/10 12:55:53;;;;;;;5.43;2.65;;;26.10;95.70;;;;;;5141887;27;20041;-71
2022/08/10 12:58:22;;;;;;;4.80;3.40;;;26.00;96.00;;;;;;5112592;27;20216;-72
2022/08/10 13:00:51;;;;;;;5.32;2.90;;;26.00;96.20;;;;;;5122680;27;20034;-72
2022/08/10 13:03:22;;;;;;;3.80;2.08;;;26.00;96.50;;;;;;5128008;27;20043;-71
2022/08/10 13:05:49;;;;;;;2.88;2.22;;;26.10;96.00;;;;;;5136533;27;20078;-71
2022/08/10 13:11:06;;;;;;;5.40;3.20;;;26.10;95.70;;;;;;5127155;27;20495;-71
2022/08/10 13:13:35;;;;;;;9.00;2.83;;;26.10;95.80;;;;;;5140585;27;20384;-71
2022/08/10 13:16:02;;;;;;;6.00;3.05;;;26.10;95.90;;;;;;5126248;27;20039;-71
2022/08/10 13:18:34;;;;;;;4.10;2.30;;;26.10;96.00;;;;;;5132388;27;20496;-71
2022/08/10 13:21:05;;;;;;;5.78;2.58;;;26.10;95.90;;;;;;5121056;27;20100;-71
2022/08/10 13:23:38;;;;;;;5.50;2.83;;;26.10;95.90;;;;;;5117973;27;20053;-71
2022/08/10 13:26:06;;;;;;;4.43;3.00;;;26.10;96.30;;;;;;5124652;27;20445;-72
2022/08/10 13:28:43;;;;;;;9.80;2.42;;;26.10;96.30;;;;;;5142005;27;20035;-71
2022/08/10 13:31:30;;;;;;;6.38;2.85;;;26.10;96.70;;;;;;5119066;27;20034;-71
2022/08/10 13:34:02;;;;;;;4.95;2.40;;;26.20;96.90;;;;;;5146456;27;20091;-72
2022/08/10 13:36:35;;;;;;;6.50;2.80;;;26.30;97.00;;;;;;5126716;27;20043;-72
2022/08/10 13:39:02;;;;;;;5.82;3.28;;;26.30;96.90;;;;;;5143880;27;20067;-73
2022/08/10 13:41:34;;;;;;;3.70;2.58;;;26.30;96.80;;;;;;5146938;27;20158;-72
2022/08/10 13:44:00;;;;;;;3.38;2.80;;;26.30;96.70;;;;;;5131613;27;20129;-73
2022/08/10 13:46:27;;;;;;;4.85;2.75;;;26.30;96.60;;;;;;5133053;27;20129;-73
2022/08/10 13:48:54;;;;;;;4.82;2.83;;;26.30;96.60;;;;;;5137210;27;20027;-73
2022/08/10 13:51:25;;;;;;;5.28;2.83;;;26.30;96.60;;;;;;5140456;27;20455;-73
2022/08/10 13:53:57;;;;;;;3.20;2.30;;;26.30;96.70;;;;;;5123981;27;20304;-72
2022/08/10 13:56:26;;;;;;;5.32;2.50;;;26.40;96.70;;;;;;5116435;27;20039;-73
2022/08/10 13:58:55;;;;;;;4.95;3.00;;;26.40;96.90;;;;;;5105073;27;20049;-72
2022/08/10 14:01:24;;;;;;;4.95;2.72;;;26.30;96.70;;;;;;5133903;27;20039;-73
2022/08/10 14:03:52;;;;;;;3.47;2.28;;;26.40;97.20;;;;;;5122947;27;20047;-73
2022/08/10 14:06:21;;;;;;;4.60;2.47;;;26.40;97.00;;;;;;5134842;27;20118;-73
2022/08/10 14:08:52;;;;;;;5.28;2.38;;;26.40;97.00;;;;;;5123814;27;20035;-73
2022/08/10 14:11:20;;;;;;;4.85;2.45;;;26.40;97.00;;;;;;5104001;27;20042;-73
2022/08/10 14:13:57;;;;;;;3.95;2.40;;;26.40;96.80;;;;;;5133862;27;20099;-73
2022/08/10 14:16:24;;;;;;;4.80;2.70;;;26.40;97.10;;;;;;5119097;27;20063;-73
2022/08/10 14:18:53;;;;;;;5.40;2.58;;;26.40;97.10;;;;;;5116866;27;20043;-73
2022/08/10 14:21:19;;;;;;;5.15;2.20;;;26.40;97.20;;;;;;5145360;27;20480;-73
2022/08/10 14:23:47;;;;;;;9.45;2.85;;;26.50;97.40;;;;;;5108692;27;20047;-73
2022/08/10 14:26:26;;;;;;;3.40;2.05;;;26.40;97.40;;;;;;5132841;27;20047;-73
2022/08/10 14:28:56;;;;;;;10.15;2.60;;;26.40;97.30;;;;;;5131940;27;20066;-73
2022/08/10 14:31:24;;;;;;;6.40;2.55;;;;;;;;;;5109100;27;20109;-73
2022/08/10 14:33:53;;;;;;;4.38;2.38;;;;;;;;;;5119541;27;20484;-73
2022/08/10 14:36:29;;;;;;;5.47;3.05;;;;;;;;;;5129165;27;20479;-73
2022/08/10 14:38:56;;;;;;;5.30;2.92;;;;;;;;;;5132080;27;20046;-73
2022/08/10 14:41:26;;;;;;;4.18;2.85;;;;;;;;;;5113491;27;20036;-73
2022/08/10 14:43:55;;;;;;;3.75;2.40;;;;;;;;;;5121698;27;20059;-73
2022/08/10 14:46:23;;;;;;;9.65;2.50;;;;;;;;;;5112640;27;20485;-73
2022/08/10 14:48:50;;;;;;;6.25;2.42;;;;;;;;;;5140930;27;20376;-74
2022/08/10 14:51:18;;;;;;;7.65;2.75;;;;;;;;;;5124125;27;20043;-73
2022/08/10 14:53:49;;;;;;;4.50;2.70;;;;;;;;;;5116273;27;20039;-73